sensor_id;sensor_type;location;lat;lon;timestamp;temperature;humidity
31597;DHT22;18201;50.978;7.034;2023-02-28T00:00:08;-0.70;99.90
31597;DHT22;18201;50.978;7.034;2023-02-28T00:00:40;-0.70;99.90
31597;DHT22;18201;50.978;7.034;2023-02-28T00:01:14;-0.70;99.90
31597;DHT22;18201;50.978;7.034;2023-02-28T00:01:46;-0.70;38.40
31597;DHT22;18201;50.978;7.034;2023-02-28T00:02:16;-0.70;52.30
31597;DHT22;18201;50.978;7.034;2023-02-28T00:02:48;-0.70;1.00
31597;DHT22;18201;50.978;7.034;2023-02-28T00:03:19;-0.70;1.00
31597;DHT22;18201;50.978;7.034;2023-02-28T00:03:50;-0.70;15.50
31597;DHT22;18201;50.978;7.034;2023-02-28T00:04:22;-0.70;1.00
31597;DHT22;18201;50.978;7.034;2023-02-28T00:04:53;-0.70;1.00
31597;DHT22;18201;50.978;7.034;2023-02-28T00:05:32;-0.70;1.00
31597;DHT22;18201;50.978;7.034;2023-02-28T00:06:06;-0.70;1.00
31597;DHT22;18201;50.978;7.034;2023-02-28T00:06:37;-0.70;1.00
31597;DHT22;18201;50.978;7.034;2023-02-28T00:07:09;-0.70;99.90
31597;DHT22;18201;50.978;7.034;2023-02-28T00:07:40;-0.70;99.90
31597;DHT22;18201;50.978;7.034;2023-02-28T00:08:12;-0.70;99.90
31597;DHT22;18201;50.978;7.034;2023-02-28T00:08:44;-0.70;99.90
31597;DHT22;18201;50.978;7.034;2023-02-28T00:09:15;-0.70;99.90
31597;DHT22;18201;50.978;7.034;2023-02-28T00:09:46;-0.70;99.90
31597;DHT22;18201;50.978;7.034;2023-02-28T00:10:20;-0.70;99.90
31597;DHT22;18201;50.978;7.034;2023-02-28T00:10:53;-0.70;99.90
31597;DHT22;18201;50.978;7.034;2023-02-28T00:11:24;-0.70;99.90
31597;DHT22;18201;50.978;7.034;2023-02-28T00:11:56;-0.70;99.90
31597;DHT22;18201;50.978;7.034;2023-02-28T00:12:27;-0.70;99.90
31597;DHT22;18201;50.978;7.034;2023-02-28T00:13:00;-0.70;99.90
31597;DHT22;18201;50.978;7.034;2023-02-28T00:13:34;-0.70;99.90
31597;DHT22;18201;50.978;7.034;2023-02-28T00:14:05;-0.70;99.90
31597;DHT22;18201;50.978;7.034;2023-02-28T00:14:36;-0.70;99.90
31597;DHT22;18201;50.978;7.034;2023-02-28T00:15:11;-0.70;99.90
31597;DHT22;18201;50.978;7.034;2023-02-28T00:15:42;-0.70;99.90
31597;DHT22;18201;50.978;7.034;2023-02-28T00:16:14;-0.70;99.90
31597;DHT22;18201;50.978;7.034;2023-02-28T00:16:46;-0.70;99.90
31597;DHT22;18201;50.978;7.034;2023-02-28T00:17:18;-0.70;99.90
31597;DHT22;18201;50.978;7.034;2023-02-28T00:17:51;-0.70;99.90
31597;DHT22;18201;50.978;7.034;2023-02-28T00:18:24;-0.80;99.90
31597;DHT22;18201;50.978;7.034;2023-02-28T00:18:55;-0.80;99.90
31597;DHT22;18201;50.978;7.034;2023-02-28T00:19:27;-0.80;99.90
31597;DHT22;18201;50.978;7.034;2023-02-28T00:19:59;-0.80;99.90
31597;DHT22;18201;50.978;7.034;2023-02-28T00:20:40;-0.80;99.90
31597;DHT22;18201;50.978;7.034;2023-02-28T00:21:12;-0.80;99.90
31597;DHT22;18201;50.978;7.034;2023-02-28T00:21:43;-0.80;99.90
31597;DHT22;18201;50.978;7.034;2023-02-28T00:22:14;-0.80;99.90
31597;DHT22;18201;50.978;7.034;2023-02-28T00:22:48;-0.80;99.90
31597;DHT22;18201;50.978;7.034;2023-02-28T00:23:19;-0.80;99.90
31597;DHT22;18201;50.978;7.034;2023-02-28T00:23:50;-0.80;99.90
31597;DHT22;18201;50.978;7.034;2023-02-28T00:24:22;-0.80;99.90
31597;DHT22;18201;50.978;7.034;2023-02-28T00:24:53;-0.80;99.90
31597;DHT22;18201;50.978;7.034;2023-02-28T00:25:25;-0.80;99.90
31597;DHT22;18201;50.978;7.034;2023-02-28T00:25:59;-0.80;99.90
31597;DHT22;18201;50.978;7.034;2023-02-28T00:26:30;-0.80;99.90
31597;DHT22;18201;50.978;7.034;2023-02-28T00:27:00;-0.80;99.90
31597;DHT22;18201;50.978;7.034;2023-02-28T00:27:31;-0.80;99.90
31597;DHT22;18201;50.978;7.034;2023-02-28T00:28:04;-0.80;99.90
31597;DHT22;18201;50.978;7.034;2023-02-28T00:28:35;-0.80;99.90
31597;DHT22;18201;50.978;7.034;2023-02-28T00:29:05;-0.80;99.90
31597;DHT22;18201;50.978;7.034;2023-02-28T00:29:38;-0.80;99.90
31597;DHT22;18201;50.978;7.034;2023-02-28T00:30:11;-0.80;99.90
31597;DHT22;18201;50.978;7.034;2023-02-28T00:30:42;-0.80;99.90
31597;DHT22;18201;50.978;7.034;2023-02-28T00:31:14;-0.80;99.90
31597;DHT22;18201;50.978;7.034;2023-02-28T00:31:45;-0.80;99.90
31597;DHT22;18201;50.978;7.034;2023-02-28T00:32:16;-0.80;99.90
31597;DHT22;18201;50.978;7.034;2023-02-28T00:32:50;-0.70;99.90
31597;DHT22;18201;50.978;7.034;2023-02-28T00:33:21;-0.80;99.90
31597;DHT22;18201;50.978;7.034;2023-02-28T00:33:52;-0.80;99.90
31597;DHT22;18201;50.978;7.034;2023-02-28T00:34:24;-0.80;99.90
31597;DHT22;18201;50.978;7.034;2023-02-28T00:34:55;-0.80;99.90
31597;DHT22;18201;50.978;7.034;2023-02-28T00:35:26;-0.80;99.90
31597;DHT22;18201;50.978;7.034;2023-02-28T00:36:05;-0.80;99.90
31597;DHT22;18201;50.978;7.034;2023-02-28T00:36:37;-0.80;99.90
31597;DHT22;18201;50.978;7.034;2023-02-28T00:37:09;-0.80;99.90
31597;DHT22;18201;50.978;7.034;2023-02-28T00:37:42;-0.80;99.90
31597;DHT22;18201;50.978;7.034;2023-02-28T00:38:14;-0.80;99.90
31597;DHT22;18201;50.978;7.034;2023-02-28T00:38:45;-0.80;99.90
31597;DHT22;18201;50.978;7.034;2023-02-28T00:39:16;-0.80;99.90
31597;DHT22;18201;50.978;7.034;2023-02-28T00:39:48;-0.80;99.90
31597;DHT22;18201;50.978;7.034;2023-02-28T00:40:19;-0.80;99.90
31597;DHT22;18201;50.978;7.034;2023-02-28T00:40:51;-0.80;99.90
31597;DHT22;18201;50.978;7.034;2023-02-28T00:41:22;-0.80;99.90
31597;DHT22;18201;50.978;7.034;2023-02-28T00:41:54;-0.90;99.90
31597;DHT22;18201;50.978;7.034;2023-02-28T00:42:25;-0.80;99.90
31597;DHT22;18201;50.978;7.034;2023-02-28T00:42:56;-0.90;99.90
31597;DHT22;18201;50.978;7.034;2023-02-28T00:43:30;-0.80;99.90
31597;DHT22;18201;50.978;7.034;2023-02-28T00:44:01;-0.90;99.90
31597;DHT22;18201;50.978;7.034;2023-02-28T00:44:32;-0.90;99.90
31597;DHT22;18201;50.978;7.034;2023-02-28T00:45:05;-0.90;99.90
31597;DHT22;18201;50.978;7.034;2023-02-28T00:45:36;-0.80;99.90
31597;DHT22;18201;50.978;7.034;2023-02-28T00:46:07;-0.80;99.90
31597;DHT22;18201;50.978;7.034;2023-02-28T00:46:39;-0.90;99.90
31597;DHT22;18201;50.978;7.034;2023-02-28T00:47:10;-0.90;99.90
31597;DHT22;18201;50.978;7.034;2023-02-28T00:47:41;-0.90;99.90
31597;DHT22;18201;50.978;7.034;2023-02-28T00:48:13;-0.90;99.90
31597;DHT22;18201;50.978;7.034;2023-02-28T00:48:43;-0.90;99.90
31597;DHT22;18201;50.978;7.034;2023-02-28T00:49:14;-0.90;99.90
31597;DHT22;18201;50.978;7.034;2023-02-28T00:49:48;-0.90;99.90
31597;DHT22;18201;50.978;7.034;2023-02-28T00:50:19;-0.90;99.90
31597;DHT22;18201;50.978;7.034;2023-02-28T00:50:50;-0.90;99.90
31597;DHT22;18201;50.978;7.034;2023-02-28T00:51:22;-0.90;99.90
31597;DHT22;18201;50.978;7.034;2023-02-28T00:51:54;-0.90;99.90
31597;DHT22;18201;50.978;7.034;2023-02-28T00:52:25;-0.90;99.90
31597;DHT22;18201;50.978;7.034;2023-02-28T00:52:56;-0.90;99.90
31597;DHT22;18201;50.978;7.034;2023-02-28T00:53:28;-0.90;99.90
31597;DHT22;18201;50.978;7.034;2023-02-28T00:53:59;-0.90;99.90
31597;DHT22;18201;50.978;7.034;2023-02-28T00:54:31;-0.90;99.90
31597;DHT22;18201;50.978;7.034;2023-02-28T00:55:02;-0.90;99.90
31597;DHT22;18201;50.978;7.034;2023-02-28T00:55:32;-0.90;99.90
31597;DHT22;18201;50.978;7.034;2023-02-28T00:56:06;-0.90;99.90
31597;DHT22;18201;50.978;7.034;2023-02-28T00:56:37;-0.90;99.90
31597;DHT22;18201;50.978;7.034;2023-02-28T00:57:08;-0.90;99.90
31597;DHT22;18201;50.978;7.034;2023-02-28T00:57:40;-0.90;99.90
31597;DHT22;18201;50.978;7.034;2023-02-28T00:58:11;-0.90;99.90
31597;DHT22;18201;50.978;7.034;2023-02-28T00:58:42;-0.90;99.90
31597;DHT22;18201;50.978;7.034;2023-02-28T00:59:15;-0.90;99.90
31597;DHT22;18201;50.978;7.034;2023-02-28T00:59:45;-0.90;99.90
31597;DHT22;18201;50.978;7.034;2023-02-28T01:00:17;-0.90;99.90
31597;DHT22;18201;50.978;7.034;2023-02-28T01:00:49;-1.00;99.90
31597;DHT22;18201;50.978;7.034;2023-02-28T01:01:20;-1.00;99.90
31597;DHT22;18201;50.978;7.034;2023-02-28T01:01:51;-0.90;99.90
31597;DHT22;18201;50.978;7.034;2023-02-28T01:02:23;-0.90;99.90
31597;DHT22;18201;50.978;7.034;2023-02-28T01:02:54;-0.90;99.90
31597;DHT22;18201;50.978;7.034;2023-02-28T01:03:25;-0.90;99.90
31597;DHT22;18201;50.978;7.034;2023-02-28T01:03:57;-0.90;99.90
31597;DHT22;18201;50.978;7.034;2023-02-28T01:04:28;-0.90;99.90
31597;DHT22;18201;50.978;7.034;2023-02-28T01:04:59;-0.90;99.90
31597;DHT22;18201;50.978;7.034;2023-02-28T01:05:30;-0.90;99.90
31597;DHT22;18201;50.978;7.034;2023-02-28T01:06:01;-1.00;99.90
31597;DHT22;18201;50.978;7.034;2023-02-28T01:06:32;-1.00;99.90
31597;DHT22;18201;50.978;7.034;2023-02-28T01:07:04;-1.00;99.90
31597;DHT22;18201;50.978;7.034;2023-02-28T01:07:35;-1.00;99.90
31597;DHT22;18201;50.978;7.034;2023-02-28T01:08:06;-1.00;99.90
31597;DHT22;18201;50.978;7.034;2023-02-28T01:08:38;-1.00;99.90
31597;DHT22;18201;50.978;7.034;2023-02-28T01:09:09;-1.00;99.90
31597;DHT22;18201;50.978;7.034;2023-02-28T01:09:40;-1.00;99.90
31597;DHT22;18201;50.978;7.034;2023-02-28T01:10:12;-1.00;99.90
31597;DHT22;18201;50.978;7.034;2023-02-28T01:10:43;-1.00;99.90
31597;DHT22;18201;50.978;7.034;2023-02-28T01:11:17;-1.00;99.90
31597;DHT22;18201;50.978;7.034;2023-02-28T01:11:49;-1.00;99.90
31597;DHT22;18201;50.978;7.034;2023-02-28T01:12:20;-1.00;99.90
31597;DHT22;18201;50.978;7.034;2023-02-28T01:12:51;-1.00;99.90
31597;DHT22;18201;50.978;7.034;2023-02-28T01:13:23;-1.00;1.00
31597;DHT22;18201;50.978;7.034;2023-02-28T01:13:54;-1.00;1.00
31597;DHT22;18201;50.978;7.034;2023-02-28T01:14:24;-1.00;1.00
31597;DHT22;18201;50.978;7.034;2023-02-28T01:14:56;-1.00;1.00
31597;DHT22;18201;50.978;7.034;2023-02-28T01:15:27;-1.00;1.00
31597;DHT22;18201;50.978;7.034;2023-02-28T01:15:59;-1.00;1.00
31597;DHT22;18201;50.978;7.034;2023-02-28T01:16:31;-1.00;1.00
31597;DHT22;18201;50.978;7.034;2023-02-28T01:17:02;-1.00;1.00
31597;DHT22;18201;50.978;7.034;2023-02-28T01:17:32;-1.00;1.00
31597;DHT22;18201;50.978;7.034;2023-02-28T01:18:04;-1.00;1.00
31597;DHT22;18201;50.978;7.034;2023-02-28T01:18:36;-1.00;1.00
31597;DHT22;18201;50.978;7.034;2023-02-28T01:19:07;-1.00;1.00
31597;DHT22;18201;50.978;7.034;2023-02-28T01:19:39;-1.00;1.00
31597;DHT22;18201;50.978;7.034;2023-02-28T01:20:11;-1.00;1.00
31597;DHT22;18201;50.978;7.034;2023-02-28T01:20:42;-1.00;1.00
31597;DHT22;18201;50.978;7.034;2023-02-28T01:21:16;-1.00;1.00
31597;DHT22;18201;50.978;7.034;2023-02-28T01:21:47;-1.00;1.00
31597;DHT22;18201;50.978;7.034;2023-02-28T01:22:18;-1.00;1.00
31597;DHT22;18201;50.978;7.034;2023-02-28T01:22:49;-1.00;1.00
31597;DHT22;18201;50.978;7.034;2023-02-28T01:23:21;-1.00;1.00
31597;DHT22;18201;50.978;7.034;2023-02-28T01:23:56;-1.00;1.00
31597;DHT22;18201;50.978;7.034;2023-02-28T01:24:28;-1.00;13.90
31597;DHT22;18201;50.978;7.034;2023-02-28T01:25:00;-1.00;1.00
31597;DHT22;18201;50.978;7.034;2023-02-28T01:25:30;-1.00;1.00
31597;DHT22;18201;50.978;7.034;2023-02-28T01:26:05;-1.00;4.30
31597;DHT22;18201;50.978;7.034;2023-02-28T01:26:38;-1.00;1.00
31597;DHT22;18201;50.978;7.034;2023-02-28T01:27:09;-1.00;1.00
31597;DHT22;18201;50.978;7.034;2023-02-28T01:27:40;-1.00;1.00
31597;DHT22;18201;50.978;7.034;2023-02-28T01:28:12;-1.00;1.00
31597;DHT22;18201;50.978;7.034;2023-02-28T01:28:43;-1.00;1.00
31597;DHT22;18201;50.978;7.034;2023-02-28T01:29:15;-1.00;1.00
31597;DHT22;18201;50.978;7.034;2023-02-28T01:29:46;-1.00;1.00
31597;DHT22;18201;50.978;7.034;2023-02-28T01:30:17;-1.00;1.00
31597;DHT22;18201;50.978;7.034;2023-02-28T01:30:49;-1.00;1.00
31597;DHT22;18201;50.978;7.034;2023-02-28T01:31:21;-1.00;1.00
31597;DHT22;18201;50.978;7.034;2023-02-28T01:31:53;-1.00;1.00
31597;DHT22;18201;50.978;7.034;2023-02-28T01:32:23;-1.00;1.00
31597;DHT22;18201;50.978;7.034;2023-02-28T01:32:54;-1.00;1.00
31597;DHT22;18201;50.978;7.034;2023-02-28T01:33:25;-1.00;1.00
31597;DHT22;18201;50.978;7.034;2023-02-28T01:33:57;-1.00;1.00
31597;DHT22;18201;50.978;7.034;2023-02-28T01:34:28;-1.00;1.00
31597;DHT22;18201;50.978;7.034;2023-02-28T01:35:00;-1.00;1.00
31597;DHT22;18201;50.978;7.034;2023-02-28T01:35:32;-1.00;1.00
31597;DHT22;18201;50.978;7.034;2023-02-28T01:36:09;-1.00;1.00
31597;DHT22;18201;50.978;7.034;2023-02-28T01:36:41;-1.00;1.00
31597;DHT22;18201;50.978;7.034;2023-02-28T01:37:13;-1.00;1.00
31597;DHT22;18201;50.978;7.034;2023-02-28T01:37:43;-1.00;1.00
31597;DHT22;18201;50.978;7.034;2023-02-28T01:38:15;-1.00;1.00
31597;DHT22;18201;50.978;7.034;2023-02-28T01:38:47;-1.00;1.00
31597;DHT22;18201;50.978;7.034;2023-02-28T01:39:18;-1.00;1.00
31597;DHT22;18201;50.978;7.034;2023-02-28T01:39:49;-1.00;1.00
31597;DHT22;18201;50.978;7.034;2023-02-28T01:40:21;-1.00;1.00
31597;DHT22;18201;50.978;7.034;2023-02-28T01:40:52;-1.00;1.00
31597;DHT22;18201;50.978;7.034;2023-02-28T01:41:25;-1.00;1.00
31597;DHT22;18201;50.978;7.034;2023-02-28T01:41:58;-1.00;1.00
31597;DHT22;18201;50.978;7.034;2023-02-28T01:42:30;-1.00;1.00
31597;DHT22;18201;50.978;7.034;2023-02-28T01:43:01;-1.00;1.00
31597;DHT22;18201;50.978;7.034;2023-02-28T01:43:53;-1.00;1.00
31597;DHT22;18201;50.978;7.034;2023-02-28T01:45:04;-1.00;1.00
31597;DHT22;18201;50.978;7.034;2023-02-28T01:45:38;-1.00;1.00
31597;DHT22;18201;50.978;7.034;2023-02-28T01:46:09;-1.00;1.00
31597;DHT22;18201;50.978;7.034;2023-02-28T01:46:41;-1.00;1.00
31597;DHT22;18201;50.978;7.034;2023-02-28T01:47:13;-1.00;1.00
31597;DHT22;18201;50.978;7.034;2023-02-28T01:47:45;-1.00;1.00
31597;DHT22;18201;50.978;7.034;2023-02-28T01:48:17;-1.10;1.00
31597;DHT22;18201;50.978;7.034;2023-02-28T01:48:54;-1.00;1.00
31597;DHT22;18201;50.978;7.034;2023-02-28T01:49:27;-1.00;1.00
31597;DHT22;18201;50.978;7.034;2023-02-28T01:49:58;-1.10;1.00
31597;DHT22;18201;50.978;7.034;2023-02-28T01:50:36;-1.00;1.00
31597;DHT22;18201;50.978;7.034;2023-02-28T01:51:11;-1.00;1.00
31597;DHT22;18201;50.978;7.034;2023-02-28T01:51:45;-1.00;1.00
31597;DHT22;18201;50.978;7.034;2023-02-28T01:52:22;-1.00;1.00
31597;DHT22;18201;50.978;7.034;2023-02-28T01:52:58;-1.10;1.00
31597;DHT22;18201;50.978;7.034;2023-02-28T01:53:33;-1.10;1.00
31597;DHT22;18201;50.978;7.034;2023-02-28T01:54:08;-1.10;1.00
31597;DHT22;18201;50.978;7.034;2023-02-28T01:54:46;-1.10;1.00
31597;DHT22;18201;50.978;7.034;2023-02-28T01:55:20;-1.10;1.00
31597;DHT22;18201;50.978;7.034;2023-02-28T01:55:53;-1.10;99.90
31597;DHT22;18201;50.978;7.034;2023-02-28T01:56:30;-1.10;1.00
31597;DHT22;18201;50.978;7.034;2023-02-28T01:57:09;-1.10;99.90
31597;DHT22;18201;50.978;7.034;2023-02-28T01:57:43;-1.10;1.00
31597;DHT22;18201;50.978;7.034;2023-02-28T01:58:18;-1.10;99.90
31597;DHT22;18201;50.978;7.034;2023-02-28T01:58:49;-1.10;99.90
31597;DHT22;18201;50.978;7.034;2023-02-28T01:59:24;-1.10;99.90
31597;DHT22;18201;50.978;7.034;2023-02-28T02:00:00;-1.20;99.90
31597;DHT22;18201;50.978;7.034;2023-02-28T02:00:35;-1.20;99.90
31597;DHT22;18201;50.978;7.034;2023-02-28T02:01:06;-1.10;99.90
31597;DHT22;18201;50.978;7.034;2023-02-28T02:01:37;-1.20;99.90
31597;DHT22;18201;50.978;7.034;2023-02-28T02:02:08;-1.20;99.90
31597;DHT22;18201;50.978;7.034;2023-02-28T02:02:41;-1.10;1.00
31597;DHT22;18201;50.978;7.034;2023-02-28T02:03:14;-1.10;1.00
31597;DHT22;18201;50.978;7.034;2023-02-28T02:03:50;-1.10;1.00
31597;DHT22;18201;50.978;7.034;2023-02-28T02:04:28;-1.10;1.00
31597;DHT22;18201;50.978;7.034;2023-02-28T02:05:04;-1.20;99.90
31597;DHT22;18201;50.978;7.034;2023-02-28T02:05:38;-1.20;99.90
31597;DHT22;18201;50.978;7.034;2023-02-28T02:06:09;-1.20;99.90
31597;DHT22;18201;50.978;7.034;2023-02-28T02:06:43;-1.20;1.00
31597;DHT22;18201;50.978;7.034;2023-02-28T02:07:16;-1.20;1.00
31597;DHT22;18201;50.978;7.034;2023-02-28T02:07:50;-1.20;99.90
31597;DHT22;18201;50.978;7.034;2023-02-28T02:08:23;-1.20;1.00
31597;DHT22;18201;50.978;7.034;2023-02-28T02:08:56;-1.20;99.90
31597;DHT22;18201;50.978;7.034;2023-02-28T02:09:27;-1.20;99.90
31597;DHT22;18201;50.978;7.034;2023-02-28T02:10:03;-1.20;99.90
31597;DHT22;18201;50.978;7.034;2023-02-28T02:10:41;-1.20;99.90
31597;DHT22;18201;50.978;7.034;2023-02-28T02:11:14;-1.30;99.90
31597;DHT22;18201;50.978;7.034;2023-02-28T02:11:48;-1.20;99.90
31597;DHT22;18201;50.978;7.034;2023-02-28T02:12:30;-1.30;1.00
31597;DHT22;18201;50.978;7.034;2023-02-28T02:14:36;-1.20;27.50
31597;DHT22;18201;50.978;7.034;2023-02-28T02:15:14;-1.30;64.80
31597;DHT22;18201;50.978;7.034;2023-02-28T02:15:56;-1.30;42.20
31597;DHT22;18201;50.978;7.034;2023-02-28T02:16:36;-1.20;96.40
31597;DHT22;18201;50.978;7.034;2023-02-28T02:17:22;-1.30;58.30
31597;DHT22;18201;50.978;7.034;2023-02-28T02:18:00;-1.30;1.00
31597;DHT22;18201;50.978;7.034;2023-02-28T02:18:39;-1.30;1.00
31597;DHT22;18201;50.978;7.034;2023-02-28T02:19:41;-1.30;40.80
31597;DHT22;18201;50.978;7.034;2023-02-28T02:21:56;-1.30;34.50
31597;DHT22;18201;50.978;7.034;2023-02-28T02:24:03;-1.30;21.70
31597;DHT22;18201;50.978;7.034;2023-02-28T02:24:58;-1.30;94.40
31597;DHT22;18201;50.978;7.034;2023-02-28T02:25:41;-1.30;99.90
31597;DHT22;18201;50.978;7.034;2023-02-28T02:26:38;-1.30;38.30
31597;DHT22;18201;50.978;7.034;2023-02-28T02:27:26;-1.30;1.00
31597;DHT22;18201;50.978;7.034;2023-02-28T02:28:33;-1.30;32.10
31597;DHT22;18201;50.978;7.034;2023-02-28T02:29:35;-1.30;1.00
31597;DHT22;18201;50.978;7.034;2023-02-28T02:30:33;-1.30;1.00
31597;DHT22;18201;50.978;7.034;2023-02-28T02:31:29;-1.40;1.00
31597;DHT22;18201;50.978;7.034;2023-02-28T02:32:34;-1.30;1.00
31597;DHT22;18201;50.978;7.034;2023-02-28T02:33:28;-1.30;1.00
31597;DHT22;18201;50.978;7.034;2023-02-28T02:34:26;-1.40;1.00
31597;DHT22;18201;50.978;7.034;2023-02-28T02:35:09;-1.30;1.00
31597;DHT22;18201;50.978;7.034;2023-02-28T02:35:48;-1.30;1.00
31597;DHT22;18201;50.978;7.034;2023-02-28T02:36:24;-1.40;1.00
31597;DHT22;18201;50.978;7.034;2023-02-28T02:37:04;-1.40;1.00
31597;DHT22;18201;50.978;7.034;2023-02-28T02:37:42;-1.40;1.00
31597;DHT22;18201;50.978;7.034;2023-02-28T02:38:20;-1.40;1.00
31597;DHT22;18201;50.978;7.034;2023-02-28T02:38:58;-1.40;1.00
31597;DHT22;18201;50.978;7.034;2023-02-28T02:39:38;-1.40;99.90
31597;DHT22;18201;50.978;7.034;2023-02-28T02:40:16;-1.40;99.90
31597;DHT22;18201;50.978;7.034;2023-02-28T02:40:53;-1.40;99.90
31597;DHT22;18201;50.978;7.034;2023-02-28T02:41:31;-1.30;1.00
31597;DHT22;18201;50.978;7.034;2023-02-28T02:42:11;-1.30;99.90
31597;DHT22;18201;50.978;7.034;2023-02-28T02:42:48;-1.30;99.90
31597;DHT22;18201;50.978;7.034;2023-02-28T02:43:26;-1.30;99.90
31597;DHT22;18201;50.978;7.034;2023-02-28T02:44:03;-1.30;99.90
31597;DHT22;18201;50.978;7.034;2023-02-28T02:44:39;-1.40;99.90
31597;DHT22;18201;50.978;7.034;2023-02-28T02:45:19;-1.40;99.90
31597;DHT22;18201;50.978;7.034;2023-02-28T02:45:55;-1.40;99.90
31597;DHT22;18201;50.978;7.034;2023-02-28T02:46:29;-1.40;99.90
31597;DHT22;18201;50.978;7.034;2023-02-28T02:47:08;-1.40;99.90
31597;DHT22;18201;50.978;7.034;2023-02-28T02:47:41;-1.40;99.90
31597;DHT22;18201;50.978;7.034;2023-02-28T02:48:16;-1.40;80.10
31597;DHT22;18201;50.978;7.034;2023-02-28T02:48:52;-1.40;1.00
31597;DHT22;18201;50.978;7.034;2023-02-28T02:49:30;-1.40;57.70
31597;DHT22;18201;50.978;7.034;2023-02-28T02:50:06;-1.40;99.90
31597;DHT22;18201;50.978;7.034;2023-02-28T02:50:42;-1.40;1.00
31597;DHT22;18201;50.978;7.034;2023-02-28T02:51:16;-1.40;1.00
31597;DHT22;18201;50.978;7.034;2023-02-28T02:51:48;-1.40;1.00
31597;DHT22;18201;50.978;7.034;2023-02-28T02:52:24;-1.50;1.00
31597;DHT22;18201;50.978;7.034;2023-02-28T02:52:59;-1.50;1.00
31597;DHT22;18201;50.978;7.034;2023-02-28T02:53:35;-1.50;1.00
31597;DHT22;18201;50.978;7.034;2023-02-28T02:54:11;-1.50;1.00
31597;DHT22;18201;50.978;7.034;2023-02-28T02:54:46;-1.50;1.00
31597;DHT22;18201;50.978;7.034;2023-02-28T02:55:20;-1.50;1.00
31597;DHT22;18201;50.978;7.034;2023-02-28T02:55:54;-1.50;1.00
31597;DHT22;18201;50.978;7.034;2023-02-28T02:56:28;-1.50;1.00
31597;DHT22;18201;50.978;7.034;2023-02-28T02:57:01;-1.50;1.00
31597;DHT22;18201;50.978;7.034;2023-02-28T02:57:40;-1.60;1.00
31597;DHT22;18201;50.978;7.034;2023-02-28T02:58:15;-1.50;1.00
31597;DHT22;18201;50.978;7.034;2023-02-28T02:58:49;-1.60;1.00
31597;DHT22;18201;50.978;7.034;2023-02-28T02:59:22;-1.60;1.00
31597;DHT22;18201;50.978;7.034;2023-02-28T02:59:55;-1.60;1.00
31597;DHT22;18201;50.978;7.034;2023-02-28T03:00:30;-1.60;99.90
31597;DHT22;18201;50.978;7.034;2023-02-28T03:01:03;-1.60;99.90
31597;DHT22;18201;50.978;7.034;2023-02-28T03:01:36;-1.60;99.90
31597;DHT22;18201;50.978;7.034;2023-02-28T03:02:11;-1.60;99.90
31597;DHT22;18201;50.978;7.034;2023-02-28T03:02:45;-1.60;1.00
31597;DHT22;18201;50.978;7.034;2023-02-28T03:03:18;-1.60;1.00
31597;DHT22;18201;50.978;7.034;2023-02-28T03:03:51;-1.60;32.80
31597;DHT22;18201;50.978;7.034;2023-02-28T03:04:27;-1.60;69.20
31597;DHT22;18201;50.978;7.034;2023-02-28T03:05:02;-1.60;80.00
31597;DHT22;18201;50.978;7.034;2023-02-28T03:05:41;-1.60;1.00
31597;DHT22;18201;50.978;7.034;2023-02-28T03:06:14;-1.70;39.00
31597;DHT22;18201;50.978;7.034;2023-02-28T03:06:47;-1.70;31.90
31597;DHT22;18201;50.978;7.034;2023-02-28T03:07:17;-1.70;40.10
31597;DHT22;18201;50.978;7.034;2023-02-28T03:07:49;-1.70;25.40
31597;DHT22;18201;50.978;7.034;2023-02-28T03:08:20;-1.70;51.40
31597;DHT22;18201;50.978;7.034;2023-02-28T03:08:51;-1.70;73.30
31597;DHT22;18201;50.978;7.034;2023-02-28T03:09:24;-1.70;99.90
31597;DHT22;18201;50.978;7.034;2023-02-28T03:09:56;-1.70;99.90
31597;DHT22;18201;50.978;7.034;2023-02-28T03:10:34;-1.70;99.90
31597;DHT22;18201;50.978;7.034;2023-02-28T03:11:11;-1.70;99.90
31597;DHT22;18201;50.978;7.034;2023-02-28T03:11:44;-1.70;99.90
31597;DHT22;18201;50.978;7.034;2023-02-28T03:12:15;-1.70;99.90
31597;DHT22;18201;50.978;7.034;2023-02-28T03:12:52;-1.70;99.90
31597;DHT22;18201;50.978;7.034;2023-02-28T03:13:34;-1.70;95.30
31597;DHT22;18201;50.978;7.034;2023-02-28T03:14:22;-1.70;40.20
31597;DHT22;18201;50.978;7.034;2023-02-28T03:15:02;-1.70;47.50
31597;DHT22;18201;50.978;7.034;2023-02-28T03:15:47;-1.70;99.90
31597;DHT22;18201;50.978;7.034;2023-02-28T03:18:30;-1.70;1.00
31597;DHT22;18201;50.978;7.034;2023-02-28T03:19:21;-1.70;1.00
31597;DHT22;18201;50.978;7.034;2023-02-28T03:20:05;-1.70;1.00
31597;DHT22;18201;50.978;7.034;2023-02-28T03:20:44;-1.70;1.00
31597;DHT22;18201;50.978;7.034;2023-02-28T03:21:24;-1.70;99.90
31597;DHT22;18201;50.978;7.034;2023-02-28T03:22:06;-1.70;99.90
31597;DHT22;18201;50.978;7.034;2023-02-28T03:22:51;-1.70;99.90
31597;DHT22;18201;50.978;7.034;2023-02-28T03:23:29;-1.70;99.90
31597;DHT22;18201;50.978;7.034;2023-02-28T03:24:05;-1.70;99.90
31597;DHT22;18201;50.978;7.034;2023-02-28T03:24:45;-1.70;99.90
31597;DHT22;18201;50.978;7.034;2023-02-28T03:25:32;-1.70;99.90
31597;DHT22;18201;50.978;7.034;2023-02-28T03:26:06;-1.70;99.90
31597;DHT22;18201;50.978;7.034;2023-02-28T03:26:41;-1.70;99.90
31597;DHT22;18201;50.978;7.034;2023-02-28T03:27:17;-1.70;99.90
31597;DHT22;18201;50.978;7.034;2023-02-28T03:27:56;-1.80;99.90
31597;DHT22;18201;50.978;7.034;2023-02-28T03:28:37;-1.80;99.90
31597;DHT22;18201;50.978;7.034;2023-02-28T03:29:15;-1.70;99.90
31597;DHT22;18201;50.978;7.034;2023-02-28T03:29:52;-1.80;99.90
31597;DHT22;18201;50.978;7.034;2023-02-28T03:30:29;-1.70;99.90
31597;DHT22;18201;50.978;7.034;2023-02-28T03:31:08;-1.70;97.70
31597;DHT22;18201;50.978;7.034;2023-02-28T03:31:44;-1.80;1.00
31597;DHT22;18201;50.978;7.034;2023-02-28T03:32:21;-1.70;80.80
31597;DHT22;18201;50.978;7.034;2023-02-28T03:32:58;-1.70;73.80
31597;DHT22;18201;50.978;7.034;2023-02-28T03:33:34;-1.70;25.90
31597;DHT22;18201;50.978;7.034;2023-02-28T03:34:09;-1.70;3.40
31597;DHT22;18201;50.978;7.034;2023-02-28T03:34:43;-1.80;1.70
31597;DHT22;18201;50.978;7.034;2023-02-28T03:35:23;-1.80;99.90
31597;DHT22;18201;50.978;7.034;2023-02-28T03:35:57;-1.70;1.00
31597;DHT22;18201;50.978;7.034;2023-02-28T03:36:32;-1.80;1.00
31597;DHT22;18201;50.978;7.034;2023-02-28T03:37:10;-1.80;1.00
31597;DHT22;18201;50.978;7.034;2023-02-28T03:37:45;-1.80;1.00
31597;DHT22;18201;50.978;7.034;2023-02-28T03:38:19;-1.80;1.00
31597;DHT22;18201;50.978;7.034;2023-02-28T03:38:55;-1.80;1.00
31597;DHT22;18201;50.978;7.034;2023-02-28T03:39:34;-1.80;1.00
31597;DHT22;18201;50.978;7.034;2023-02-28T03:40:10;-1.80;99.90
31597;DHT22;18201;50.978;7.034;2023-02-28T03:40:48;-1.80;1.00
31597;DHT22;18201;50.978;7.034;2023-02-28T03:41:21;-1.80;1.00
31597;DHT22;18201;50.978;7.034;2023-02-28T03:41:58;-1.80;1.00
31597;DHT22;18201;50.978;7.034;2023-02-28T03:42:31;-1.80;99.90
31597;DHT22;18201;50.978;7.034;2023-02-28T03:43:10;-1.80;99.90
31597;DHT22;18201;50.978;7.034;2023-02-28T03:43:48;-1.80;1.00
31597;DHT22;18201;50.978;7.034;2023-02-28T03:44:23;-1.80;1.00
31597;DHT22;18201;50.978;7.034;2023-02-28T03:44:58;-1.80;1.00
31597;DHT22;18201;50.978;7.034;2023-02-28T03:45:33;-1.80;99.90
31597;DHT22;18201;50.978;7.034;2023-02-28T03:46:09;-1.80;99.90
31597;DHT22;18201;50.978;7.034;2023-02-28T03:46:44;-1.80;99.90
31597;DHT22;18201;50.978;7.034;2023-02-28T03:47:20;-1.80;99.90